PWSweather.com
Personal Weather Stations
Station Observations
KFLSTJOH36
Aberdeen Highland Point, Saint Johns, FL 32259

Aberdeen Highland PointSaint Johns, FL 32259

Lat: 30.082981, Lon: -81.59522

Elevation: 60

Station Type: Acurite 5-in-1 Weather Sensor

High Low Average
Temperature 100.9°F38.3°C 73.4°F23.0°C 87.5°F30.8°C
Dew Point 79.2°F26.2°C 71.3°F21.8°C 75.4°F24.1°C
Winds 6.0 mph 9.7 kmh Calm Calm 1.0 mph S1.6 kmh S
Wind Gusts -- -- --
Humidity 94% 40% 70%
Pressure 30.15 in1021.0 mb 30.05 in1017.6 mb -
Precipitation 0.00 in0.0 mm - -
Hour Temp Dew Point Humidity Winds Wind Gusts Pressure Precip Precip Rate Daily Precip Total
12:00 AM 75.9°F24.4°C 73.1°F22.8°C 91% Calm Calm -- 30.06 in1017.9 mb 0.00 in0.0 mm 0.00 in0.0 mm 0.00 in0.0 mm
12:15 AM 76.1°F24.5°C 73.3°F22.9°C 91% Calm Calm -- 30.06 in1017.9 mb 0.00 in0.0 mm 0.00 in0.0 mm 0.00 in0.0 mm
12:35 AM 76.1°F24.5°C 72.9°F22.7°C 90% Calm Calm -- 30.06 in1017.9 mb 0.00 in0.0 mm 0.00 in0.0 mm 0.00 in0.0 mm
12:40 AM 75.9°F24.4°C 72.8°F22.7°C 90% Calm Calm -- 30.06 in1017.9 mb 0.00 in0.0 mm 0.00 in0.0 mm 0.00 in0.0 mm
12:45 AM 75.7°F24.3°C 72.6°F22.6°C 90% Calm Calm -- 30.06 in1017.9 mb 0.00 in0.0 mm 0.00 in0.0 mm 0.00 in0.0 mm
12:50 AM 75.6°F24.2°C 72.7°F22.6°C 91% Calm Calm -- 30.06 in1017.9 mb 0.00 in0.0 mm 0.00 in0.0 mm 0.00 in0.0 mm
12:55 AM 75.4°F24.1°C 72.6°F22.6°C 91% Calm Calm -- 30.06 in1017.9 mb 0.00 in0.0 mm 0.00 in0.0 mm 0.00 in0.0 mm
01:05 AM 75.4°F24.1°C 72.9°F22.7°C 92% Calm Calm -- 30.06 in1017.9 mb 0.00 in0.0 mm 0.00 in0.0 mm 0.00 in0.0 mm
01:10 AM 75.2°F24.0°C 72.7°F22.6°C 92% Calm Calm -- 30.06 in1017.9 mb 0.00 in0.0 mm 0.00 in0.0 mm 0.00 in0.0 mm
01:20 AM 74.8°F23.8°C 72.3°F22.4°C 92% Calm Calm -- 30.06 in1017.9 mb 0.00 in0.0 mm 0.00 in0.0 mm 0.00 in0.0 mm
01:25 AM 74.7°F23.7°C 72.2°F22.3°C 92% Calm Calm -- 30.06 in1017.9 mb 0.00 in0.0 mm 0.00 in0.0 mm 0.00 in0.0 mm
01:30 AM 74.8°F23.8°C 72.3°F22.4°C 92% Calm Calm -- 30.06 in1017.9 mb 0.00 in0.0 mm 0.00 in0.0 mm 0.00 in0.0 mm
01:35 AM 74.8°F23.8°C 72.7°F22.6°C 93% Calm Calm -- 30.06 in1017.9 mb 0.00 in0.0 mm 0.00 in0.0 mm 0.00 in0.0 mm
01:45 AM 74.7°F23.7°C 72.5°F22.5°C 93% Calm Calm -- 30.05 in1017.6 mb 0.00 in0.0 mm 0.00 in0.0 mm 0.00 in0.0 mm
01:55 AM 74.5°F23.6°C 72.3°F22.4°C 93% Calm Calm -- 30.05 in1017.6 mb 0.00 in0.0 mm 0.00 in0.0 mm 0.00 in0.0 mm
02:10 AM 74.3°F23.5°C 72.1°F22.3°C 93% Calm Calm -- 30.05 in1017.6 mb 0.00 in0.0 mm 0.00 in0.0 mm 0.00 in0.0 mm
02:20 AM 74.1°F23.4°C 72.0°F22.2°C 93% Calm Calm -- 30.05 in1017.6 mb 0.00 in0.0 mm 0.00 in0.0 mm 0.00 in0.0 mm
02:25 AM 74.1°F23.4°C 72.0°F22.2°C 93% Calm Calm -- 30.05 in1017.6 mb 0.00 in0.0 mm 0.00 in0.0 mm 0.00 in0.0 mm
02:30 AM 73.9°F23.3°C 71.8°F22.1°C 93% Calm Calm -- 30.05 in1017.6 mb 0.00 in0.0 mm 0.00 in0.0 mm 0.00 in0.0 mm
02:55 AM 74.1°F23.4°C 72.0°F22.2°C 93% Calm Calm -- 30.05 in1017.6 mb 0.00 in0.0 mm 0.00 in0.0 mm 0.00 in0.0 mm
03:00 AM 74.1°F23.4°C 72.0°F22.2°C 93% Calm Calm -- 30.05 in1017.6 mb 0.00 in0.0 mm 0.00 in0.0 mm 0.00 in0.0 mm
03:10 AM 74.3°F23.5°C 72.1°F22.3°C 93% Calm Calm -- 30.05 in1017.6 mb 0.00 in0.0 mm 0.00 in0.0 mm 0.00 in0.0 mm
03:20 AM 74.5°F23.6°C 72.3°F22.4°C 93% Calm Calm -- 30.05 in1017.6 mb 0.00 in0.0 mm 0.00 in0.0 mm 0.00 in0.0 mm
03:40 AM 74.3°F23.5°C 72.1°F22.3°C 93% Calm Calm -- 30.05 in1017.6 mb 0.00 in0.0 mm 0.00 in0.0 mm 0.00 in0.0 mm
03:45 AM 74.3°F23.5°C 72.1°F22.3°C 93% Calm Calm -- 30.05 in1017.6 mb 0.00 in0.0 mm 0.00 in0.0 mm 0.00 in0.0 mm
03:50 AM 74.5°F23.6°C 72.3°F22.4°C 93% Calm Calm -- 30.05 in1017.6 mb 0.00 in0.0 mm 0.00 in0.0 mm 0.00 in0.0 mm
04:05 AM 74.3°F23.5°C 72.1°F22.3°C 93% Calm Calm -- 30.05 in1017.6 mb 0.00 in0.0 mm 0.00 in0.0 mm 0.00 in0.0 mm
04:10 AM 74.3°F23.5°C 72.1°F22.3°C 93% Calm Calm -- 30.06 in1017.9 mb 0.00 in0.0 mm 0.00 in0.0 mm 0.00 in0.0 mm
04:15 AM 73.9°F23.3°C 71.8°F22.1°C 93% Calm Calm -- 30.06 in1017.9 mb 0.00 in0.0 mm 0.00 in0.0 mm 0.00 in0.0 mm
04:25 AM 73.8°F23.2°C 71.6°F22.0°C 93% Calm Calm -- 30.06 in1017.9 mb 0.00 in0.0 mm 0.00 in0.0 mm 0.00 in0.0 mm
04:30 AM 73.6°F23.1°C 71.4°F21.9°C 93% Calm Calm -- 30.06 in1017.9 mb 0.00 in0.0 mm 0.00 in0.0 mm 0.00 in0.0 mm
04:40 AM 73.6°F23.1°C 71.4°F21.9°C 93% Calm Calm -- 30.07 in1018.3 mb 0.00 in0.0 mm 0.00 in0.0 mm 0.00 in0.0 mm
05:20 AM 73.6°F23.1°C 71.4°F21.9°C 93% Calm Calm -- 30.08 in1018.6 mb 0.00 in0.0 mm 0.00 in0.0 mm 0.00 in0.0 mm
05:25 AM 73.4°F23.0°C 71.6°F22.0°C 94% Calm Calm -- 30.08 in1018.6 mb 0.00 in0.0 mm 0.00 in0.0 mm 0.00 in0.0 mm
05:30 AM 73.6°F23.1°C 71.7°F22.1°C 94% Calm Calm -- 30.08 in1018.6 mb 0.00 in0.0 mm 0.00 in0.0 mm 0.00 in0.0 mm
05:40 AM 73.8°F23.2°C 71.9°F22.2°C 94% Calm Calm -- 30.08 in1018.6 mb 0.00 in0.0 mm 0.00 in0.0 mm 0.00 in0.0 mm
05:45 AM 73.8°F23.2°C 71.9°F22.2°C 94% Calm Calm -- 30.09 in1019.0 mb 0.00 in0.0 mm 0.00 in0.0 mm 0.00 in0.0 mm
05:50 AM 73.9°F23.3°C 72.1°F22.3°C 94% Calm Calm -- 30.08 in1018.6 mb 0.00 in0.0 mm 0.00 in0.0 mm 0.00 in0.0 mm
05:55 AM 74.1°F23.4°C 72.3°F22.4°C 94% Calm Calm -- 30.09 in1019.0 mb 0.00 in0.0 mm 0.00 in0.0 mm 0.00 in0.0 mm
06:10 AM 74.3°F23.5°C 72.5°F22.5°C 94% Calm Calm -- 30.09 in1019.0 mb 0.00 in0.0 mm 0.00 in0.0 mm 0.00 in0.0 mm
06:25 AM 74.1°F23.4°C 72.3°F22.4°C 94% Calm Calm -- 30.09 in1019.0 mb 0.00 in0.0 mm 0.00 in0.0 mm 0.00 in0.0 mm
06:30 AM 74.1°F23.4°C 72.3°F22.4°C 94% Calm Calm -- 30.10 in1019.3 mb 0.00 in0.0 mm 0.00 in0.0 mm 0.00 in0.0 mm
06:40 AM 74.3°F23.5°C 72.5°F22.5°C 94% Calm Calm -- 30.10 in1019.3 mb 0.00 in0.0 mm 0.00 in0.0 mm 0.00 in0.0 mm
06:45 AM 74.5°F23.6°C 72.6°F22.6°C 94% Calm Calm -- 30.10 in1019.3 mb 0.00 in0.0 mm 0.00 in0.0 mm 0.00 in0.0 mm
06:50 AM 74.8°F23.8°C 73.0°F22.8°C 94% Calm Calm -- 30.10 in1019.3 mb 0.00 in0.0 mm 0.00 in0.0 mm 0.00 in0.0 mm
06:55 AM 75.7°F24.3°C 73.9°F23.3°C 94% Calm Calm -- 30.11 in1019.6 mb 0.00 in0.0 mm 0.00 in0.0 mm 0.00 in0.0 mm
07:00 AM 76.6°F24.8°C 74.8°F23.8°C 94% Calm Calm -- 30.11 in1019.6 mb 0.00 in0.0 mm 0.00 in0.0 mm 0.00 in0.0 mm
07:05 AM 77.2°F25.1°C 75.3°F24.1°C 94% Calm Calm -- 30.11 in1019.6 mb 0.00 in0.0 mm 0.00 in0.0 mm 0.00 in0.0 mm
07:10 AM 78.1°F25.6°C 75.6°F24.2°C 92% Calm Calm -- 30.11 in1019.6 mb 0.00 in0.0 mm 0.00 in0.0 mm 0.00 in0.0 mm
07:15 AM 79.2°F26.2°C 76.3°F24.6°C 91% Calm Calm -- 30.11 in1019.6 mb 0.00 in0.0 mm 0.00 in0.0 mm 0.00 in0.0 mm
07:20 AM 79.9°F26.6°C 76.7°F24.8°C 90% Calm Calm -- 30.12 in1020.0 mb 0.00 in0.0 mm 0.00 in0.0 mm 0.00 in0.0 mm
07:25 AM 81.1°F27.3°C 77.9°F25.5°C 90% Calm Calm -- 30.12 in1020.0 mb 0.00 in0.0 mm 0.00 in0.0 mm 0.00 in0.0 mm
07:30 AM 81.5°F27.5°C 76.9°F24.9°C 86% Calm Calm -- 30.12 in1020.0 mb 0.00 in0.0 mm 0.00 in0.0 mm 0.00 in0.0 mm
07:35 AM 81.9°F27.7°C 77.3°F25.2°C 86% Calm Calm -- 30.12 in1020.0 mb 0.00 in0.0 mm 0.00 in0.0 mm 0.00 in0.0 mm
07:40 AM 82.4°F28.0°C 77.4°F25.2°C 85% Calm Calm -- 30.12 in1020.0 mb 0.00 in0.0 mm 0.00 in0.0 mm 0.00 in0.0 mm
07:45 AM 83.3°F28.5°C 77.6°F25.3°C 83% Calm Calm -- 30.12 in1020.0 mb 0.00 in0.0 mm 0.00 in0.0 mm 0.00 in0.0 mm
07:50 AM 84.4°F29.1°C 78.7°F25.9°C 83% Calm Calm -- 30.12 in1020.0 mb 0.00 in0.0 mm 0.00 in0.0 mm 0.00 in0.0 mm
07:55 AM 84.9°F29.4°C 78.1°F25.6°C 80% Calm Calm -- 30.12 in1020.0 mb 0.00 in0.0 mm 0.00 in0.0 mm 0.00 in0.0 mm
08:00 AM 86.2°F30.1°C 78.9°F26.1°C 79% Calm Calm -- 30.12 in1020.0 mb 0.00 in0.0 mm 0.00 in0.0 mm 0.00 in0.0 mm
08:05 AM 86.7°F30.4°C 78.7°F25.9°C 77% Calm Calm -- 30.12 in1020.0 mb 0.00 in0.0 mm 0.00 in0.0 mm 0.00 in0.0 mm
08:10 AM 88.0°F31.1°C 79.1°F26.2°C 75% Calm Calm -- 30.12 in1020.0 mb 0.00 in0.0 mm 0.00 in0.0 mm 0.00 in0.0 mm
08:15 AM 88.5°F31.4°C 79.2°F26.2°C 74% 1.0 mph SW1.6 kmh SW -- 30.12 in1020.0 mb 0.00 in0.0 mm 0.00 in0.0 mm 0.00 in0.0 mm
08:20 AM 84.9°F29.4°C 77.7°F25.4°C 79% Calm Calm -- 30.12 in1020.0 mb 0.00 in0.0 mm 0.00 in0.0 mm 0.00 in0.0 mm
08:25 AM 85.5°F29.7°C 77.8°F25.4°C 78% Calm Calm -- 30.12 in1020.0 mb 0.00 in0.0 mm 0.00 in0.0 mm 0.00 in0.0 mm
08:30 AM 85.5°F29.7°C 77.8°F25.4°C 78% 1.0 mph WSW1.6 kmh WSW -- 30.12 in1020.0 mb 0.00 in0.0 mm 0.00 in0.0 mm 0.00 in0.0 mm
08:35 AM 85.3°F29.6°C 78.0°F25.6°C 79% Calm Calm -- 30.12 in1020.0 mb 0.00 in0.0 mm 0.00 in0.0 mm 0.00 in0.0 mm
08:40 AM 85.6°F29.8°C 78.0°F25.6°C 78% 2.0 mph W3.2 kmh W -- 30.12 in1020.0 mb 0.00 in0.0 mm 0.00 in0.0 mm 0.00 in0.0 mm
08:45 AM 86.0°F30.0°C 78.3°F25.7°C 78% 1.0 mph WSW1.6 kmh WSW -- 30.12 in1020.0 mb 0.00 in0.0 mm 0.00 in0.0 mm 0.00 in0.0 mm
08:50 AM 86.4°F30.2°C 78.3°F25.7°C 77% 3.0 mph W4.8 kmh W -- 30.13 in1020.3 mb 0.00 in0.0 mm 0.00 in0.0 mm 0.00 in0.0 mm
08:55 AM 86.7°F30.4°C 78.3°F25.7°C 76% 2.0 mph W3.2 kmh W -- 30.13 in1020.3 mb 0.00 in0.0 mm 0.00 in0.0 mm 0.00 in0.0 mm
09:00 AM 86.9°F30.5°C 78.8°F26.0°C 77% 1.0 mph WNW1.6 kmh WNW -- 30.12 in1020.0 mb 0.00 in0.0 mm 0.00 in0.0 mm 0.00 in0.0 mm
09:05 AM 88.3°F31.3°C 78.6°F25.9°C 73% 2.0 mph SW3.2 kmh SW -- 30.12 in1020.0 mb 0.00 in0.0 mm 0.00 in0.0 mm 0.00 in0.0 mm
09:10 AM 88.0°F31.1°C 78.3°F25.7°C 73% 2.0 mph W3.2 kmh W -- 30.13 in1020.3 mb 0.00 in0.0 mm 0.00 in0.0 mm 0.00 in0.0 mm
09:15 AM 88.0°F31.1°C 78.7°F25.9°C 74% 1.0 mph W1.6 kmh W -- 30.12 in1020.0 mb 0.00 in0.0 mm 0.00 in0.0 mm 0.00 in0.0 mm
09:20 AM 88.9°F31.6°C 79.1°F26.2°C 73% 2.0 mph WSW3.2 kmh WSW -- 30.12 in1020.0 mb 0.00 in0.0 mm 0.00 in0.0 mm 0.00 in0.0 mm
09:25 AM 89.2°F31.8°C 78.6°F25.9°C 71% 2.0 mph W3.2 kmh W -- 30.13 in1020.3 mb 0.00 in0.0 mm 0.00 in0.0 mm 0.00 in0.0 mm
09:30 AM 89.6°F32.0°C 78.1°F25.6°C 69% 2.0 mph W3.2 kmh W -- 30.13 in1020.3 mb 0.00 in0.0 mm 0.00 in0.0 mm 0.00 in0.0 mm
09:35 AM 90.1°F32.3°C 78.6°F25.9°C 69% 3.0 mph WSW4.8 kmh WSW -- 30.13 in1020.3 mb 0.00 in0.0 mm 0.00 in0.0 mm 0.00 in0.0 mm
09:40 AM 90.5°F32.5°C 78.1°F25.6°C 67% 1.0 mph SW1.6 kmh SW -- 30.13 in1020.3 mb 0.00 in0.0 mm 0.00 in0.0 mm 0.00 in0.0 mm
09:45 AM 91.2°F32.9°C 78.8°F26.0°C 67% 2.0 mph W3.2 kmh W -- 30.13 in1020.3 mb 0.00 in0.0 mm 0.00 in0.0 mm 0.00 in0.0 mm
09:50 AM 91.8°F33.2°C 78.4°F25.8°C 65% 2.0 mph SSW3.2 kmh SSW -- 30.13 in1020.3 mb 0.00 in0.0 mm 0.00 in0.0 mm 0.00 in0.0 mm
09:55 AM 92.3°F33.5°C 78.4°F25.8°C 64% 2.0 mph WSW3.2 kmh WSW -- 30.13 in1020.3 mb 0.00 in0.0 mm 0.00 in0.0 mm 0.00 in0.0 mm
10:00 AM 92.5°F33.6°C 77.6°F25.3°C 62% 1.0 mph S1.6 kmh S -- 30.13 in1020.3 mb 0.00 in0.0 mm 0.00 in0.0 mm 0.00 in0.0 mm
10:05 AM 92.7°F33.7°C 78.3°F25.7°C 63% 1.0 mph S1.6 kmh S -- 30.13 in1020.3 mb 0.00 in0.0 mm 0.00 in0.0 mm 0.00 in0.0 mm
10:10 AM 92.8°F33.8°C 78.0°F25.6°C 62% 1.0 mph WNW1.6 kmh WNW -- 30.13 in1020.3 mb 0.00 in0.0 mm 0.00 in0.0 mm 0.00 in0.0 mm
10:15 AM 93.0°F33.9°C 78.1°F25.6°C 62% 2.0 mph W3.2 kmh W -- 30.13 in1020.3 mb 0.00 in0.0 mm 0.00 in0.0 mm 0.00 in0.0 mm
10:20 AM 92.3°F33.5°C 77.0°F25.0°C 61% 2.0 mph 3.2 kmh -- 30.13 in1020.3 mb 0.00 in0.0 mm 0.00 in0.0 mm 0.00 in0.0 mm
10:25 AM 93.0°F33.9°C 76.6°F24.8°C 59% 4.0 mph WNW6.4 kmh WNW -- 30.13 in1020.3 mb 0.00 in0.0 mm 0.00 in0.0 mm 0.00 in0.0 mm
10:30 AM 94.3°F34.6°C 78.3°F25.7°C 60% 2.0 mph W3.2 kmh W -- 30.12 in1020.0 mb 0.00 in0.0 mm 0.00 in0.0 mm 0.00 in0.0 mm
10:35 AM 94.5°F34.7°C 77.0°F25.0°C 57% 2.0 mph W3.2 kmh W -- 30.13 in1020.3 mb 0.00 in0.0 mm 0.00 in0.0 mm 0.00 in0.0 mm
10:40 AM 95.2°F35.1°C 77.1°F25.1°C 56% 2.0 mph SSW3.2 kmh SSW -- 30.13 in1020.3 mb 0.00 in0.0 mm 0.00 in0.0 mm 0.00 in0.0 mm
10:45 AM 94.8°F34.9°C 78.3°F25.7°C 59% 2.0 mph NW3.2 kmh NW -- 30.12 in1020.0 mb 0.00 in0.0 mm 0.00 in0.0 mm 0.00 in0.0 mm
10:50 AM 94.6°F34.8°C 78.7°F25.9°C 60% 1.0 mph WSW1.6 kmh WSW -- 30.12 in1020.0 mb 0.00 in0.0 mm 0.00 in0.0 mm 0.00 in0.0 mm
10:55 AM 94.8°F34.9°C 76.8°F24.9°C 56% 2.0 mph W3.2 kmh W -- 30.12 in1020.0 mb 0.00 in0.0 mm 0.00 in0.0 mm 0.00 in0.0 mm
11:00 AM 95.4°F35.2°C 77.3°F25.2°C 56% 2.0 mph WNW3.2 kmh WNW -- 30.12 in1020.0 mb 0.00 in0.0 mm 0.00 in0.0 mm 0.00 in0.0 mm
11:05 AM 95.7°F35.4°C 76.0°F24.4°C 53% 2.0 mph SSW3.2 kmh SSW -- 30.12 in1020.0 mb 0.00 in0.0 mm 0.00 in0.0 mm 0.00 in0.0 mm
11:10 AM 96.1°F35.6°C 76.3°F24.6°C 53% 2.0 mph S3.2 kmh S -- 30.12 in1020.0 mb 0.00 in0.0 mm 0.00 in0.0 mm 0.00 in0.0 mm
11:15 AM 96.3°F35.7°C 76.5°F24.7°C 53% 2.0 mph WSW3.2 kmh WSW -- 30.12 in1020.0 mb 0.00 in0.0 mm 0.00 in0.0 mm 0.00 in0.0 mm
11:20 AM 96.6°F35.9°C 77.4°F25.2°C 54% 3.0 mph W4.8 kmh W -- 30.12 in1020.0 mb 0.00 in0.0 mm 0.00 in0.0 mm 0.00 in0.0 mm
11:25 AM 96.4°F35.8°C 77.2°F25.1°C 54% 1.0 mph NW1.6 kmh NW -- 30.12 in1020.0 mb 0.00 in0.0 mm 0.00 in0.0 mm 0.00 in0.0 mm
11:30 AM 96.3°F35.7°C 76.5°F24.7°C 53% 1.0 mph NNW1.6 kmh NNW -- 30.12 in1020.0 mb 0.00 in0.0 mm 0.00 in0.0 mm 0.00 in0.0 mm
11:35 AM 97.7°F36.5°C 78.4°F25.8°C 54% 1.0 mph W1.6 kmh W -- 30.11 in1019.6 mb 0.00 in0.0 mm 0.00 in0.0 mm 0.00 in0.0 mm
11:40 AM 97.5°F36.4°C 76.5°F24.7°C 51% 4.0 mph SW6.4 kmh SW -- 30.12 in1020.0 mb 0.00 in0.0 mm 0.00 in0.0 mm 0.00 in0.0 mm
11:45 AM 98.1°F36.7°C 78.7°F25.9°C 54% 3.0 mph WNW4.8 kmh WNW -- 30.12 in1020.0 mb 0.00 in0.0 mm 0.00 in0.0 mm 0.00 in0.0 mm
11:50 AM 97.7°F36.5°C 76.7°F24.8°C 51% 2.0 mph WNW3.2 kmh WNW -- 30.12 in1020.0 mb 0.00 in0.0 mm 0.00 in0.0 mm 0.00 in0.0 mm
11:55 AM 97.3°F36.3°C 78.6°F25.9°C 55% 3.0 mph WSW4.8 kmh WSW -- 30.11 in1019.6 mb 0.00 in0.0 mm 0.00 in0.0 mm 0.00 in0.0 mm
12:00 PM 95.9°F35.5°C 75.6°F24.2°C 52% 3.0 mph SSW4.8 kmh SSW -- 30.11 in1019.6 mb 0.00 in0.0 mm 0.00 in0.0 mm 0.00 in0.0 mm
12:05 PM 96.8°F36.0°C 77.0°F25.0°C 53% 2.0 mph SSW3.2 kmh SSW -- 30.11 in1019.6 mb 0.00 in0.0 mm 0.00 in0.0 mm 0.00 in0.0 mm
12:10 PM 96.6°F35.9°C 74.5°F23.6°C 49% 3.0 mph ENE4.8 kmh ENE -- 30.11 in1019.6 mb 0.00 in0.0 mm 0.00 in0.0 mm 0.00 in0.0 mm
12:15 PM 98.6°F37.0°C 75.7°F24.3°C 48% 6.0 mph WSW9.7 kmh WSW -- 30.11 in1019.6 mb 0.00 in0.0 mm 0.00 in0.0 mm 0.00 in0.0 mm
12:20 PM 99.3°F37.4°C 75.7°F24.3°C 47% 2.0 mph SW3.2 kmh SW -- 30.11 in1019.6 mb 0.00 in0.0 mm 0.00 in0.0 mm 0.00 in0.0 mm
12:25 PM 99.7°F37.6°C 73.4°F23.0°C 43% 2.0 mph SW3.2 kmh SW -- 30.11 in1019.6 mb 0.00 in0.0 mm 0.00 in0.0 mm 0.00 in0.0 mm
12:30 PM 99.9°F37.7°C 72.9°F22.7°C 42% 4.0 mph SW6.4 kmh SW -- 30.11 in1019.6 mb 0.00 in0.0 mm 0.00 in0.0 mm 0.00 in0.0 mm
12:35 PM 99.7°F37.6°C 71.3°F21.8°C 40% 4.0 mph SE6.4 kmh SE -- 30.11 in1019.6 mb 0.00 in0.0 mm 0.00 in0.0 mm 0.00 in0.0 mm
12:40 PM 99.9°F37.7°C 72.9°F22.7°C 42% 3.0 mph WSW4.8 kmh WSW -- 30.11 in1019.6 mb 0.00 in0.0 mm 0.00 in0.0 mm 0.00 in0.0 mm
12:45 PM 99.3°F37.4°C 73.1°F22.8°C 43% 5.0 mph WSW8.0 kmh WSW -- 30.10 in1019.3 mb 0.00 in0.0 mm 0.00 in0.0 mm 0.00 in0.0 mm
12:50 PM 99.5°F37.5°C 73.2°F22.9°C 43% 3.0 mph WSW4.8 kmh WSW -- 30.10 in1019.3 mb 0.00 in0.0 mm 0.00 in0.0 mm 0.00 in0.0 mm
12:55 PM 100.0°F37.8°C 73.0°F22.8°C 42% 3.0 mph SE4.8 kmh SE -- 30.10 in1019.3 mb 0.00 in0.0 mm 0.00 in0.0 mm 0.00 in0.0 mm
01:00 PM 99.3°F37.4°C 73.1°F22.8°C 43% 2.0 mph WSW3.2 kmh WSW -- 30.10 in1019.3 mb 0.00 in0.0 mm 0.00 in0.0 mm 0.00 in0.0 mm
01:05 PM 99.9°F37.7°C 73.6°F23.1°C 43% 5.0 mph S8.0 kmh S -- 30.10 in1019.3 mb 0.00 in0.0 mm 0.00 in0.0 mm 0.00 in0.0 mm
01:10 PM 99.3°F37.4°C 74.4°F23.6°C 45% 1.0 mph SW1.6 kmh SW -- 30.10 in1019.3 mb 0.00 in0.0 mm 0.00 in0.0 mm 0.00 in0.0 mm
01:15 PM 100.0°F37.8°C 74.4°F23.6°C 44% 3.0 mph W4.8 kmh W -- 30.10 in1019.3 mb 0.00 in0.0 mm 0.00 in0.0 mm 0.00 in0.0 mm
01:20 PM 98.8°F37.1°C 73.3°F22.9°C 44% 1.0 mph 1.6 kmh -- 30.10 in1019.3 mb 0.00 in0.0 mm 0.00 in0.0 mm 0.00 in0.0 mm
01:25 PM 98.1°F36.7°C 75.2°F24.0°C 48% 2.0 mph NW3.2 kmh NW -- 30.09 in1019.0 mb 0.00 in0.0 mm 0.00 in0.0 mm 0.00 in0.0 mm
01:30 PM 99.9°F37.7°C 74.9°F23.8°C 45% 2.0 mph W3.2 kmh W -- 30.09 in1019.0 mb 0.00 in0.0 mm 0.00 in0.0 mm 0.00 in0.0 mm
01:35 PM 100.2°F37.9°C 75.2°F24.0°C 45% 2.0 mph S3.2 kmh S -- 30.09 in1019.0 mb 0.00 in0.0 mm 0.00 in0.0 mm 0.00 in0.0 mm
01:40 PM 100.9°F38.3°C 75.2°F24.0°C 44% 3.0 mph WSW4.8 kmh WSW -- 30.09 in1019.0 mb 0.00 in0.0 mm 0.00 in0.0 mm 0.00 in0.0 mm
01:45 PM 99.7°F37.6°C 74.1°F23.4°C 44% 1.0 mph W1.6 kmh W -- 30.09 in1019.0 mb 0.00 in0.0 mm 0.00 in0.0 mm 0.00 in0.0 mm
01:50 PM 100.0°F37.8°C 74.4°F23.6°C 44% 2.0 mph SW3.2 kmh SW -- 30.09 in1019.0 mb 0.00 in0.0 mm 0.00 in0.0 mm 0.00 in0.0 mm
01:55 PM 99.9°F37.7°C 76.8°F24.9°C 48% 3.0 mph WNW4.8 kmh WNW -- 30.09 in1019.0 mb 0.00 in0.0 mm 0.00 in0.0 mm 0.00 in0.0 mm
02:00 PM 99.7°F37.6°C 76.0°F24.4°C 47% 3.0 mph W4.8 kmh W -- 30.08 in1018.6 mb 0.00 in0.0 mm 0.00 in0.0 mm 0.00 in0.0 mm
02:05 PM 98.8°F37.1°C 74.6°F23.7°C 46% 2.0 mph ENE3.2 kmh ENE -- 30.09 in1019.0 mb 0.00 in0.0 mm 0.00 in0.0 mm 0.00 in0.0 mm
02:10 PM 98.2°F36.8°C 74.1°F23.4°C 46% 2.0 mph ENE3.2 kmh ENE -- 30.08 in1018.6 mb 0.00 in0.0 mm 0.00 in0.0 mm 0.00 in0.0 mm
02:15 PM 99.3°F37.4°C 75.7°F24.3°C 47% 3.0 mph W4.8 kmh W -- 30.08 in1018.6 mb 0.00 in0.0 mm 0.00 in0.0 mm 0.00 in0.0 mm
02:20 PM 99.5°F37.5°C 75.2°F24.0°C 46% 2.0 mph SW3.2 kmh SW -- 30.08 in1018.6 mb 0.00 in0.0 mm 0.00 in0.0 mm 0.00 in0.0 mm
02:25 PM 99.5°F37.5°C 77.1°F25.1°C 49% 2.0 mph WNW3.2 kmh WNW -- 30.08 in1018.6 mb 0.00 in0.0 mm 0.00 in0.0 mm 0.00 in0.0 mm
02:30 PM 99.3°F37.4°C 75.1°F23.9°C 46% 1.0 mph W1.6 kmh W -- 30.08 in1018.6 mb 0.00 in0.0 mm 0.00 in0.0 mm 0.00 in0.0 mm
02:35 PM 99.9°F37.7°C 74.2°F23.4°C 44% 3.0 mph W4.8 kmh W -- 30.08 in1018.6 mb 0.00 in0.0 mm 0.00 in0.0 mm 0.00 in0.0 mm
02:40 PM 99.9°F37.7°C 74.9°F23.8°C 45% 5.0 mph WSW8.0 kmh WSW -- 30.08 in1018.6 mb 0.00 in0.0 mm 0.00 in0.0 mm 0.00 in0.0 mm
02:45 PM 99.3°F37.4°C 75.1°F23.9°C 46% 2.0 mph WSW3.2 kmh WSW -- 30.08 in1018.6 mb 0.00 in0.0 mm 0.00 in0.0 mm 0.00 in0.0 mm
02:50 PM 99.3°F37.4°C 77.0°F25.0°C 49% 2.0 mph W3.2 kmh W -- 30.08 in1018.6 mb 0.00 in0.0 mm 0.00 in0.0 mm 0.00 in0.0 mm
02:55 PM 99.3°F37.4°C 74.4°F23.6°C 45% 3.0 mph WNW4.8 kmh WNW -- 30.07 in1018.3 mb 0.00 in0.0 mm 0.00 in0.0 mm 0.00 in0.0 mm
03:00 PM 99.9°F37.7°C 73.6°F23.1°C 43% 2.0 mph W3.2 kmh W -- 30.07 in1018.3 mb 0.00 in0.0 mm 0.00 in0.0 mm 0.00 in0.0 mm
03:05 PM 99.9°F37.7°C 75.6°F24.2°C 46% 1.0 mph S1.6 kmh S -- 30.07 in1018.3 mb 0.00 in0.0 mm 0.00 in0.0 mm 0.00 in0.0 mm
03:10 PM 100.0°F37.8°C 74.4°F23.6°C 44% 3.0 mph S4.8 kmh S -- 30.07 in1018.3 mb 0.00 in0.0 mm 0.00 in0.0 mm 0.00 in0.0 mm
03:15 PM 99.7°F37.6°C 73.4°F23.0°C 43% 5.0 mph SE8.0 kmh SE -- 30.07 in1018.3 mb 0.00 in0.0 mm 0.00 in0.0 mm 0.00 in0.0 mm
03:20 PM 100.2°F37.9°C 74.6°F23.7°C 44% 6.0 mph W9.7 kmh W -- 30.07 in1018.3 mb 0.00 in0.0 mm 0.00 in0.0 mm 0.00 in0.0 mm
03:25 PM 99.5°F37.5°C 73.9°F23.3°C 44% 5.0 mph ESE8.0 kmh ESE -- 30.07 in1018.3 mb 0.00 in0.0 mm 0.00 in0.0 mm 0.00 in0.0 mm
03:30 PM 98.2°F36.8°C 73.4°F23.0°C 45% 3.0 mph SSW4.8 kmh SSW -- 30.07 in1018.3 mb 0.00 in0.0 mm 0.00 in0.0 mm 0.00 in0.0 mm
03:35 PM 99.5°F37.5°C 73.2°F22.9°C 43% 2.0 mph ESE3.2 kmh ESE -- 30.07 in1018.3 mb 0.00 in0.0 mm 0.00 in0.0 mm 0.00 in0.0 mm
03:40 PM 99.0°F37.2°C 73.4°F23.0°C 44% 3.0 mph S4.8 kmh S -- 30.07 in1018.3 mb 0.00 in0.0 mm 0.00 in0.0 mm 0.00 in0.0 mm
03:45 PM 99.3°F37.4°C 73.7°F23.2°C 44% 1.0 mph S1.6 kmh S -- 30.07 in1018.3 mb 0.00 in0.0 mm 0.00 in0.0 mm 0.00 in0.0 mm
03:50 PM 99.0°F37.2°C 74.1°F23.4°C 45% Calm Calm -- 30.07 in1018.3 mb 0.00 in0.0 mm 0.00 in0.0 mm 0.00 in0.0 mm
03:55 PM 99.0°F37.2°C 74.7°F23.7°C 46% 3.0 mph ESE4.8 kmh ESE -- 30.07 in1018.3 mb 0.00 in0.0 mm 0.00 in0.0 mm 0.00 in0.0 mm
04:00 PM 99.3°F37.4°C 75.1°F23.9°C 46% 2.0 mph ESE3.2 kmh ESE -- 30.07 in1018.3 mb 0.00 in0.0 mm 0.00 in0.0 mm 0.00 in0.0 mm
04:05 PM 99.1°F37.3°C 74.2°F23.4°C 45% 3.0 mph WSW4.8 kmh WSW -- 30.07 in1018.3 mb 0.00 in0.0 mm 0.00 in0.0 mm 0.00 in0.0 mm
04:10 PM 99.1°F37.3°C 74.2°F23.4°C 45% 2.0 mph SSW3.2 kmh SSW -- 30.07 in1018.3 mb 0.00 in0.0 mm 0.00 in0.0 mm 0.00 in0.0 mm
04:15 PM 100.0°F37.8°C 74.4°F23.6°C 44% 3.0 mph S4.8 kmh S -- 30.07 in1018.3 mb 0.00 in0.0 mm 0.00 in0.0 mm 0.00 in0.0 mm
04:20 PM 98.8°F37.1°C 73.9°F23.3°C 45% 1.0 mph SSW1.6 kmh SSW -- 30.07 in1018.3 mb 0.00 in0.0 mm 0.00 in0.0 mm 0.00 in0.0 mm
04:25 PM 98.1°F36.7°C 75.2°F24.0°C 48% Calm Calm -- 30.07 in1018.3 mb 0.00 in0.0 mm 0.00 in0.0 mm 0.00 in0.0 mm
04:30 PM 97.2°F36.2°C 74.3°F23.5°C 48% 2.0 mph NNE3.2 kmh NNE -- 30.07 in1018.3 mb 0.00 in0.0 mm 0.00 in0.0 mm 0.00 in0.0 mm
04:35 PM 97.2°F36.2°C 77.9°F25.5°C 54% 5.0 mph E8.0 kmh E -- 30.07 in1018.3 mb 0.00 in0.0 mm 0.00 in0.0 mm 0.00 in0.0 mm
04:40 PM 97.0°F36.1°C 77.1°F25.1°C 53% 4.0 mph ESE6.4 kmh ESE -- 30.07 in1018.3 mb 0.00 in0.0 mm 0.00 in0.0 mm 0.00 in0.0 mm
04:45 PM 96.6°F35.9°C 78.5°F25.8°C 56% 1.0 mph ESE1.6 kmh ESE -- 30.07 in1018.3 mb 0.00 in0.0 mm 0.00 in0.0 mm 0.00 in0.0 mm
04:50 PM 95.9°F35.5°C 78.3°F25.7°C 57% 3.0 mph ESE4.8 kmh ESE -- 30.07 in1018.3 mb 0.00 in0.0 mm 0.00 in0.0 mm 0.00 in0.0 mm
04:55 PM 95.4°F35.2°C 78.3°F25.7°C 58% 4.0 mph NE6.4 kmh NE -- 30.07 in1018.3 mb 0.00 in0.0 mm 0.00 in0.0 mm 0.00 in0.0 mm
05:00 PM 94.6°F34.8°C 78.2°F25.7°C 59% 4.0 mph E6.4 kmh E -- 30.07 in1018.3 mb 0.00 in0.0 mm 0.00 in0.0 mm 0.00 in0.0 mm
05:05 PM 94.3°F34.6°C 78.3°F25.7°C 60% 3.0 mph SE4.8 kmh SE -- 30.07 in1018.3 mb 0.00 in0.0 mm 0.00 in0.0 mm 0.00 in0.0 mm
05:10 PM 94.3°F34.6°C 77.8°F25.4°C 59% 2.0 mph SSE3.2 kmh SSE -- 30.07 in1018.3 mb 0.00 in0.0 mm 0.00 in0.0 mm 0.00 in0.0 mm
05:15 PM 93.7°F34.3°C 77.3°F25.2°C 59% 2.0 mph ESE3.2 kmh ESE -- 30.08 in1018.6 mb 0.00 in0.0 mm 0.00 in0.0 mm 0.00 in0.0 mm
05:20 PM 92.8°F33.8°C 76.5°F24.7°C 59% 6.0 mph SE9.7 kmh SE -- 30.08 in1018.6 mb 0.00 in0.0 mm 0.00 in0.0 mm 0.00 in0.0 mm
05:25 PM 92.5°F33.6°C 76.6°F24.8°C 60% 3.0 mph ESE4.8 kmh ESE -- 30.08 in1018.6 mb 0.00 in0.0 mm 0.00 in0.0 mm 0.00 in0.0 mm
05:30 PM 92.8°F33.8°C 77.5°F25.3°C 61% 1.0 mph ESE1.6 kmh ESE -- 30.08 in1018.6 mb 0.00 in0.0 mm 0.00 in0.0 mm 0.00 in0.0 mm
05:35 PM 92.3°F33.5°C 77.0°F25.0°C 61% 3.0 mph SE4.8 kmh SE -- 30.08 in1018.6 mb 0.00 in0.0 mm 0.00 in0.0 mm 0.00 in0.0 mm
05:40 PM 91.9°F33.3°C 76.6°F24.8°C 61% 5.0 mph ESE8.0 kmh ESE -- 30.08 in1018.6 mb 0.00 in0.0 mm 0.00 in0.0 mm 0.00 in0.0 mm
05:45 PM 91.6°F33.1°C 76.3°F24.6°C 61% 4.0 mph ESE6.4 kmh ESE -- 30.08 in1018.6 mb 0.00 in0.0 mm 0.00 in0.0 mm 0.00 in0.0 mm
05:50 PM 91.4°F33.0°C 76.6°F24.8°C 62% 3.0 mph SE4.8 kmh SE -- 30.08 in1018.6 mb 0.00 in0.0 mm 0.00 in0.0 mm 0.00 in0.0 mm
05:55 PM 91.2°F32.9°C 76.4°F24.7°C 62% 1.0 mph ESE1.6 kmh ESE -- 30.08 in1018.6 mb 0.00 in0.0 mm 0.00 in0.0 mm 0.00 in0.0 mm
06:00 PM 90.7°F32.6°C 76.4°F24.7°C 63% 3.0 mph ESE4.8 kmh ESE -- 30.08 in1018.6 mb 0.00 in0.0 mm 0.00 in0.0 mm 0.00 in0.0 mm
06:05 PM 90.5°F32.5°C 76.2°F24.6°C 63% 3.0 mph ESE4.8 kmh ESE -- 30.08 in1018.6 mb 0.00 in0.0 mm 0.00 in0.0 mm 0.00 in0.0 mm
06:10 PM 89.8°F32.1°C 76.5°F24.7°C 65% 2.0 mph ESE3.2 kmh ESE -- 30.08 in1018.6 mb 0.00 in0.0 mm 0.00 in0.0 mm 0.00 in0.0 mm
06:15 PM 89.8°F32.1°C 76.9°F24.9°C 66% 1.0 mph E1.6 kmh E -- 30.08 in1018.6 mb 0.00 in0.0 mm 0.00 in0.0 mm 0.00 in0.0 mm
06:20 PM 89.4°F31.9°C 77.1°F25.1°C 67% 1.0 mph E1.6 kmh E -- 30.08 in1018.6 mb 0.00 in0.0 mm 0.00 in0.0 mm 0.00 in0.0 mm
06:25 PM 89.4°F31.9°C 77.1°F25.1°C 67% Calm Calm -- 30.08 in1018.6 mb 0.00 in0.0 mm 0.00 in0.0 mm 0.00 in0.0 mm
06:30 PM 88.5°F31.4°C 76.2°F24.6°C 67% 2.0 mph ESE3.2 kmh ESE -- 30.09 in1019.0 mb 0.00 in0.0 mm 0.00 in0.0 mm 0.00 in0.0 mm
06:35 PM 88.3°F31.3°C 76.5°F24.7°C 68% 1.0 mph ESE1.6 kmh ESE -- 30.09 in1019.0 mb 0.00 in0.0 mm 0.00 in0.0 mm 0.00 in0.0 mm
06:40 PM 88.0°F31.1°C 76.1°F24.5°C 68% 1.0 mph ESE1.6 kmh ESE -- 30.09 in1019.0 mb 0.00 in0.0 mm 0.00 in0.0 mm 0.00 in0.0 mm
06:45 PM 87.6°F30.9°C 76.2°F24.6°C 69% 2.0 mph ESE3.2 kmh ESE -- 30.09 in1019.0 mb 0.00 in0.0 mm 0.00 in0.0 mm 0.00 in0.0 mm
06:50 PM 87.4°F30.8°C 76.0°F24.4°C 69% 2.0 mph ESE3.2 kmh ESE -- 30.09 in1019.0 mb 0.00 in0.0 mm 0.00 in0.0 mm 0.00 in0.0 mm
06:55 PM 86.9°F30.5°C 76.0°F24.4°C 70% 1.0 mph ESE1.6 kmh ESE -- 30.09 in1019.0 mb 0.00 in0.0 mm 0.00 in0.0 mm 0.00 in0.0 mm
07:00 PM 86.5°F30.3°C 76.0°F24.4°C 71% Calm Calm -- 30.09 in1019.0 mb 0.00 in0.0 mm 0.00 in0.0 mm 0.00 in0.0 mm
07:05 PM 86.2°F30.1°C 76.1°F24.5°C 72% 2.0 mph ESE3.2 kmh ESE -- 30.09 in1019.0 mb 0.00 in0.0 mm 0.00 in0.0 mm 0.00 in0.0 mm
07:10 PM 85.8°F29.9°C 76.2°F24.6°C 73% 1.0 mph ESE1.6 kmh ESE -- 30.10 in1019.3 mb 0.00 in0.0 mm 0.00 in0.0 mm 0.00 in0.0 mm
07:15 PM 85.3°F29.6°C 76.1°F24.5°C 74% 2.0 mph ESE3.2 kmh ESE -- 30.10 in1019.3 mb 0.00 in0.0 mm 0.00 in0.0 mm 0.00 in0.0 mm
07:20 PM 85.3°F29.6°C 76.1°F24.5°C 74% 1.0 mph ESE1.6 kmh ESE -- 30.10 in1019.3 mb 0.00 in0.0 mm 0.00 in0.0 mm 0.00 in0.0 mm
07:25 PM 85.1°F29.5°C 75.9°F24.4°C 74% 1.0 mph SE1.6 kmh SE -- 30.10 in1019.3 mb 0.00 in0.0 mm 0.00 in0.0 mm 0.00 in0.0 mm
07:30 PM 85.3°F29.6°C 76.1°F24.5°C 74% Calm Calm -- 30.10 in1019.3 mb 0.00 in0.0 mm 0.00 in0.0 mm 0.00 in0.0 mm
07:35 PM 84.7°F29.3°C 75.5°F24.2°C 74% Calm Calm -- 30.11 in1019.6 mb 0.00 in0.0 mm 0.00 in0.0 mm 0.00 in0.0 mm
07:40 PM 84.6°F29.2°C 75.8°F24.3°C 75% 2.0 mph SE3.2 kmh SE -- 30.11 in1019.6 mb 0.00 in0.0 mm 0.00 in0.0 mm 0.00 in0.0 mm
07:45 PM 84.2°F29.0°C 75.8°F24.3°C 76% Calm Calm -- 30.11 in1019.6 mb 0.00 in0.0 mm 0.00 in0.0 mm 0.00 in0.0 mm
07:50 PM 84.2°F29.0°C 75.8°F24.3°C 76% Calm Calm -- 30.11 in1019.6 mb 0.00 in0.0 mm 0.00 in0.0 mm 0.00 in0.0 mm
07:55 PM 83.7°F28.7°C 75.7°F24.3°C 77% Calm Calm -- 30.11 in1019.6 mb 0.00 in0.0 mm 0.00 in0.0 mm 0.00 in0.0 mm
08:00 PM 83.5°F28.6°C 75.5°F24.2°C 77% 1.0 mph SE1.6 kmh SE -- 30.11 in1019.6 mb 0.00 in0.0 mm 0.00 in0.0 mm 0.00 in0.0 mm
08:10 PM 83.1°F28.4°C 75.5°F24.2°C 78% 1.0 mph ESE1.6 kmh ESE -- 30.11 in1019.6 mb 0.00 in0.0 mm 0.00 in0.0 mm 0.00 in0.0 mm
08:15 PM 82.8°F28.2°C 75.2°F24.0°C 78% 1.0 mph SE1.6 kmh SE -- 30.12 in1020.0 mb 0.00 in0.0 mm 0.00 in0.0 mm 0.00 in0.0 mm
08:20 PM 82.8°F28.2°C 75.2°F24.0°C 78% Calm Calm -- 30.12 in1020.0 mb 0.00 in0.0 mm 0.00 in0.0 mm 0.00 in0.0 mm
08:25 PM 82.8°F28.2°C 75.6°F24.2°C 79% Calm Calm -- 30.12 in1020.0 mb 0.00 in0.0 mm 0.00 in0.0 mm 0.00 in0.0 mm
08:30 PM 82.8°F28.2°C 75.2°F24.0°C 78% Calm Calm -- 30.12 in1020.0 mb 0.00 in0.0 mm 0.00 in0.0 mm 0.00 in0.0 mm
08:35 PM 82.4°F28.0°C 75.2°F24.0°C 79% Calm Calm -- 30.12 in1020.0 mb 0.00 in0.0 mm 0.00 in0.0 mm 0.00 in0.0 mm
08:40 PM 81.9°F27.7°C 75.5°F24.2°C 81% Calm Calm -- 30.13 in1020.3 mb 0.00 in0.0 mm 0.00 in0.0 mm 0.00 in0.0 mm
08:50 PM 81.7°F27.6°C 75.3°F24.1°C 81% Calm Calm -- 30.13 in1020.3 mb 0.00 in0.0 mm 0.00 in0.0 mm 0.00 in0.0 mm
08:55 PM 81.7°F27.6°C 76.0°F24.4°C 83% Calm Calm -- 30.13 in1020.3 mb 0.00 in0.0 mm 0.00 in0.0 mm 0.00 in0.0 mm
09:00 PM 81.3°F27.4°C 75.7°F24.3°C 83% Calm Calm -- 30.14 in1020.7 mb 0.00 in0.0 mm 0.00 in0.0 mm 0.00 in0.0 mm
09:05 PM 81.0°F27.2°C 75.3°F24.1°C 83% Calm Calm -- 30.14 in1020.7 mb 0.00 in0.0 mm 0.00 in0.0 mm 0.00 in0.0 mm
09:10 PM 80.8°F27.1°C 75.5°F24.2°C 84% 2.0 mph ESE3.2 kmh ESE -- 30.14 in1020.7 mb 0.00 in0.0 mm 0.00 in0.0 mm 0.00 in0.0 mm
09:15 PM 80.6°F27.0°C 75.7°F24.3°C 85% 1.0 mph ESE1.6 kmh ESE -- 30.14 in1020.7 mb 0.00 in0.0 mm 0.00 in0.0 mm 0.00 in0.0 mm
09:20 PM 80.6°F27.0°C 75.7°F24.3°C 85% Calm Calm -- 30.14 in1020.7 mb 0.00 in0.0 mm 0.00 in0.0 mm 0.00 in0.0 mm
09:25 PM 80.2°F26.8°C 75.7°F24.3°C 86% Calm Calm -- 30.13 in1020.3 mb 0.00 in0.0 mm 0.00 in0.0 mm 0.00 in0.0 mm
09:30 PM 80.2°F26.8°C 75.7°F24.3°C 86% 1.0 mph SE1.6 kmh SE -- 30.14 in1020.7 mb 0.00 in0.0 mm 0.00 in0.0 mm 0.00 in0.0 mm
09:35 PM 80.4°F26.9°C 75.8°F24.3°C 86% Calm Calm -- 30.14 in1020.7 mb 0.00 in0.0 mm 0.00 in0.0 mm 0.00 in0.0 mm
09:40 PM 80.4°F26.9°C 75.5°F24.2°C 85% Calm Calm -- 30.14 in1020.7 mb 0.00 in0.0 mm 0.00 in0.0 mm 0.00 in0.0 mm
09:45 PM 80.2°F26.8°C 75.3°F24.1°C 85% Calm Calm -- 30.14 in1020.7 mb 0.00 in0.0 mm 0.00 in0.0 mm 0.00 in0.0 mm
09:50 PM 80.1°F26.7°C 75.1°F23.9°C 85% Calm Calm -- 30.14 in1020.7 mb 0.00 in0.0 mm 0.00 in0.0 mm 0.00 in0.0 mm
09:55 PM 80.1°F26.7°C 75.5°F24.2°C 86% Calm Calm -- 30.14 in1020.7 mb 0.00 in0.0 mm 0.00 in0.0 mm 0.00 in0.0 mm
10:00 PM 80.1°F26.7°C 75.1°F23.9°C 85% Calm Calm -- 30.14 in1020.7 mb 0.00 in0.0 mm 0.00 in0.0 mm 0.00 in0.0 mm
10:05 PM 79.9°F26.6°C 75.7°F24.3°C 87% Calm Calm -- 30.14 in1020.7 mb 0.00 in0.0 mm 0.00 in0.0 mm 0.00 in0.0 mm
10:10 PM 79.5°F26.4°C 75.6°F24.2°C 88% Calm Calm -- 30.15 in1021.0 mb 0.00 in0.0 mm 0.00 in0.0 mm 0.00 in0.0 mm
10:20 PM 79.5°F26.4°C 75.3°F24.1°C 87% Calm Calm -- 30.15 in1021.0 mb 0.00 in0.0 mm 0.00 in0.0 mm 0.00 in0.0 mm
10:25 PM 79.3°F26.3°C 75.5°F24.2°C 88% Calm Calm -- 30.15 in1021.0 mb 0.00 in0.0 mm 0.00 in0.0 mm 0.00 in0.0 mm
10:30 PM 79.3°F26.3°C 75.8°F24.3°C 89% Calm Calm -- 30.15 in1021.0 mb 0.00 in0.0 mm 0.00 in0.0 mm 0.00 in0.0 mm
10:40 PM 79.2°F26.2°C 75.6°F24.2°C 89% Calm Calm -- 30.15 in1021.0 mb 0.00 in0.0 mm 0.00 in0.0 mm 0.00 in0.0 mm
10:55 PM 79.2°F26.2°C 75.3°F24.1°C 88% Calm Calm -- 30.15 in1021.0 mb 0.00 in0.0 mm 0.00 in0.0 mm 0.00 in0.0 mm
11:00 PM 78.8°F26.0°C 75.3°F24.1°C 89% Calm Calm -- 30.15 in1021.0 mb 0.00 in0.0 mm 0.00 in0.0 mm 0.00 in0.0 mm
11:05 PM 78.8°F26.0°C 75.6°F24.2°C 90% Calm Calm -- 30.15 in1021.0 mb 0.00 in0.0 mm 0.00 in0.0 mm 0.00 in0.0 mm
11:10 PM 78.6°F25.9°C 75.8°F24.3°C 91% Calm Calm -- 30.15 in1021.0 mb 0.00 in0.0 mm 0.00 in0.0 mm 0.00 in0.0 mm
11:20 PM 78.4°F25.8°C 75.6°F24.2°C 91% Calm Calm -- 30.15 in1021.0 mb 0.00 in0.0 mm 0.00 in0.0 mm 0.00 in0.0 mm
11:30 PM 78.6°F25.9°C 76.1°F24.5°C 92% Calm Calm -- 30.15 in1021.0 mb 0.00 in0.0 mm 0.00 in0.0 mm 0.00 in0.0 mm
11:40 PM 78.8°F26.0°C 76.3°F24.6°C 92% Calm Calm -- 30.15 in1021.0 mb 0.00 in0.0 mm 0.00 in0.0 mm 0.00 in0.0 mm
11:45 PM 78.8°F26.0°C 76.6°F24.8°C 93% Calm Calm -- 30.15 in1021.0 mb 0.00 in0.0 mm 0.00 in0.0 mm 0.00 in0.0 mm
11:50 PM 79.0°F26.1°C 76.8°F24.9°C 93% Calm Calm -- 30.15 in1021.0 mb 0.00 in0.0 mm 0.00 in0.0 mm 0.00 in0.0 mm